createdAt,value
2018-06-14T00:02:16.863Z,13.80
2018-06-14T00:07:37.486Z,13.70
2018-06-14T00:10:11.993Z,13.70
2018-06-14T00:12:51.060Z,13.70
2018-06-14T00:15:28.962Z,13.70
2018-06-14T00:17:59.156Z,13.60
2018-06-14T00:20:33.322Z,13.60
2018-06-14T00:23:09.531Z,13.60
2018-06-14T00:25:44.522Z,13.60
2018-06-14T00:28:18.135Z,13.60
2018-06-14T00:30:58.040Z,13.60
2018-06-14T00:33:31.910Z,13.60
2018-06-14T00:36:01.997Z,13.60
2018-06-14T00:38:35.648Z,13.60
2018-06-14T00:41:07.063Z,13.60
2018-06-14T00:43:37.081Z,13.60
2018-06-14T00:46:11.321Z,13.60
2018-06-14T00:48:48.332Z,13.60
2018-06-14T00:51:22.619Z,13.60
2018-06-14T00:53:54.490Z,13.60
2018-06-14T00:56:29.651Z,13.50
2018-06-14T00:59:07.236Z,13.60
2018-06-14T01:01:39.000Z,13.50
2018-06-14T01:04:14.154Z,13.50
2018-06-14T01:06:46.018Z,13.50
2018-06-14T01:09:21.902Z,13.40
2018-06-14T01:11:57.846Z,13.40
2018-06-14T01:14:32.686Z,13.40
2018-06-14T01:17:06.755Z,13.40
2018-06-14T01:19:41.511Z,13.30
2018-06-14T01:24:51.529Z,13.30
2018-06-14T01:30:44.682Z,13.40
2018-06-14T01:33:19.228Z,13.40
2018-06-14T01:36:00.752Z,13.30
2018-06-14T01:38:32.557Z,13.30
2018-06-14T01:41:04.406Z,13.20
2018-06-14T01:43:38.066Z,13.20
2018-06-14T01:46:08.106Z,13.20
2018-06-14T01:48:42.407Z,13.20
2018-06-14T01:51:17.882Z,13.10
2018-06-14T01:53:55.718Z,13.10
2018-06-14T01:56:32.144Z,13.20
2018-06-14T01:59:08.832Z,13.20
2018-06-14T02:01:42.465Z,13.20
2018-06-14T02:04:18.643Z,13.20
2018-06-14T02:09:31.592Z,13.10
2018-06-14T02:12:04.276Z,13.10
2018-06-14T02:14:36.561Z,13.10
2018-06-14T02:17:09.834Z,13.10
2018-06-14T02:19:54.541Z,13.10
2018-06-14T02:22:31.116Z,13.10
2018-06-14T02:25:02.095Z,13.10
2018-06-14T02:27:34.836Z,13.00
2018-06-14T02:30:06.508Z,13.00
2018-06-14T02:32:39.969Z,13.00
2018-06-14T02:35:15.603Z,12.90
2018-06-14T02:37:53.038Z,12.90
2018-06-14T02:40:32.581Z,12.90
2018-06-14T02:43:07.825Z,12.90
2018-06-14T02:45:46.705Z,12.90
2018-06-14T02:48:24.411Z,12.90
2018-06-14T02:50:56.231Z,12.90
2018-06-14T02:53:28.722Z,12.90
2018-06-14T02:56:03.972Z,12.90
2018-06-14T02:58:36.758Z,12.90
2018-06-14T03:01:09.903Z,12.90
2018-06-14T03:03:42.534Z,12.80
2018-06-14T03:06:22.567Z,12.80
2018-06-14T03:09:00.372Z,12.80
2018-06-14T03:11:33.641Z,12.80
2018-06-14T03:14:08.517Z,12.80
2018-06-14T03:16:43.337Z,12.70
2018-06-14T03:19:16.330Z,12.80
2018-06-14T03:21:51.671Z,12.70
2018-06-14T03:24:25.754Z,12.70
2018-06-14T03:26:59.585Z,12.70
2018-06-14T03:29:35.624Z,12.70
2018-06-14T03:32:09.334Z,12.70
2018-06-14T03:34:40.702Z,12.70
2018-06-14T03:37:18.044Z,12.70
2018-06-14T03:39:57.905Z,12.70
2018-06-14T03:42:30.226Z,12.70
2018-06-14T03:45:02.162Z,12.70
2018-06-14T03:47:36.011Z,12.80
2018-06-14T03:50:08.809Z,12.80
2018-06-14T03:52:44.062Z,12.80
2018-06-14T03:55:17.850Z,12.90
2018-06-14T03:57:53.792Z,13.00
2018-06-14T04:00:33.740Z,13.00
2018-06-14T04:03:04.984Z,13.10
2018-06-14T04:05:39.007Z,13.20
2018-06-14T04:08:19.079Z,13.20
2018-06-14T04:10:56.181Z,13.40
2018-06-14T04:13:36.220Z,13.50
2018-06-14T04:16:08.546Z,14.10
2018-06-14T04:18:50.387Z,15.00
2018-06-14T04:21:22.386Z,15.70
2018-06-14T04:23:56.401Z,15.70
2018-06-14T04:26:32.463Z,15.40
2018-06-14T04:29:07.425Z,15.30
2018-06-14T04:31:45.734Z,15.20
2018-06-14T04:34:25.401Z,15.30
2018-06-14T04:37:01.211Z,15.50
2018-06-14T04:39:45.534Z,16.10
2018-06-14T04:42:21.275Z,16.50
2018-06-14T04:44:56.569Z,17.10
2018-06-14T04:47:34.874Z,17.90
2018-06-14T04:52:46.627Z,19.20
2018-06-14T04:55:29.362Z,19.60
2018-06-14T04:58:10.900Z,19.90
2018-06-14T05:03:39.726Z,20.10
2018-06-14T05:11:50.217Z,20.50
2018-06-14T05:15:01.424Z,21.00
2018-06-14T05:17:53.222Z,21.40
2018-06-14T05:29:16.337Z,22.00
2018-06-14T05:32:05.317Z,23.10
2018-06-14T05:35:00.812Z,23.30
2018-06-14T05:43:47.268Z,23.90
2018-06-14T05:46:25.714Z,23.70
2018-06-14T05:49:07.385Z,23.10
2018-06-14T05:52:04.242Z,23.20
2018-06-14T05:54:55.988Z,23.10
2018-06-14T05:57:43.151Z,22.90
2018-06-14T06:00:23.494Z,22.80
2018-06-14T06:03:17.060Z,22.70
2018-06-14T06:09:04.009Z,23.40
2018-06-14T06:11:45.281Z,23.70
2018-06-14T06:14:35.309Z,24.30
2018-06-14T06:17:19.957Z,25.30
2018-06-14T06:20:06.423Z,25.70
2018-06-14T06:47:43.164Z,26.20
2018-06-14T06:50:21.835Z,26.30
2018-06-14T06:59:33.903Z,27.80
2018-06-14T07:14:07.674Z,28.10
2018-06-14T07:16:52.161Z,28.30
2018-06-14T07:22:42.271Z,27.90
2018-06-14T07:25:28.612Z,27.90
2018-06-14T07:28:13.681Z,27.90
2018-06-14T07:30:50.844Z,27.40
2018-06-14T07:33:37.738Z,27.60
2018-06-14T07:39:29.301Z,28.00
2018-06-14T07:42:33.446Z,28.50
2018-06-14T07:45:35.071Z,28.60
2018-06-14T07:48:20.257Z,28.50
2018-06-14T07:50:59.534Z,28.70
2018-06-14T07:53:54.673Z,28.90
2018-06-14T07:56:33.510Z,28.50
2018-06-14T07:59:15.947Z,28.90
2018-06-14T08:58:04.662Z,30.40
2018-06-14T09:00:50.491Z,29.70
2018-06-14T09:09:36.804Z,25.50
2018-06-14T09:12:16.429Z,24.80
2018-06-14T09:15:11.619Z,24.10
2018-06-14T09:18:00.826Z,24.20
2018-06-14T09:20:57.428Z,25.60
2018-06-14T09:23:45.070Z,27.00
2018-06-14T09:26:27.587Z,27.00
2018-06-14T09:29:11.454Z,26.60
2018-06-14T09:31:56.396Z,26.80
2018-06-14T09:35:04.237Z,27.20
2018-06-14T09:40:42.890Z,27.40
2018-06-14T09:43:30.860Z,27.00
2018-06-14T09:46:05.393Z,25.70
2018-06-14T09:51:28.824Z,24.00
2018-06-14T09:54:22.250Z,23.60
2018-06-14T09:56:59.908Z,23.30
2018-06-14T09:59:52.900Z,23.20
2018-06-14T10:02:41.637Z,24.00
2018-06-14T10:05:34.647Z,24.80
2018-06-14T10:08:18.624Z,25.30
2018-06-14T10:11:06.801Z,25.90
2018-06-14T10:25:48.262Z,26.10
2018-06-14T10:38:30.916Z,24.70
2018-06-14T10:41:14.344Z,24.70
2018-06-14T10:55:28.012Z,24.90
2018-06-14T10:58:16.578Z,24.50
2018-06-14T11:01:03.805Z,24.50
2018-06-14T12:45:12.437Z,24.20
2018-06-14T12:47:54.033Z,24.30
2018-06-14T12:50:28.710Z,24.30
2018-06-14T12:53:09.439Z,24.30
2018-06-14T12:56:10.421Z,24.30
2018-06-14T12:58:56.291Z,24.50
2018-06-14T13:01:47.138Z,24.70
2018-06-14T13:10:06.889Z,24.50
2018-06-14T13:15:59.208Z,24.50
2018-06-14T13:20:52.089Z,24.40
2018-06-14T23:52:18.927Z,16.80
2018-06-14T23:55:12.214Z,16.90
2018-06-14T23:57:45.272Z,16.90
